createdAt,value
2023-04-20T00:00:35.227Z,3.28
2023-04-20T00:03:01.815Z,3.65
2023-04-20T00:05:28.390Z,3.20
2023-04-20T00:07:54.732Z,3.40
2023-04-20T00:10:20.964Z,3.88
2023-04-20T00:12:47.200Z,3.80
2023-04-20T00:15:13.508Z,3.25
2023-04-20T00:17:39.888Z,3.42
2023-04-20T00:20:06.428Z,3.22
2023-04-20T00:22:32.668Z,3.45
2023-04-20T00:24:58.905Z,3.03
2023-04-20T00:27:25.294Z,3.03
2023-04-20T00:29:51.538Z,3.33
2023-04-20T00:32:17.770Z,4.07
2023-04-20T00:34:44.038Z,3.45
2023-04-20T00:37:10.263Z,3.20
2023-04-20T00:39:36.490Z,4.35
2023-04-20T00:42:06.562Z,3.90
2023-04-20T00:44:33.355Z,3.50
2023-04-20T00:46:59.834Z,3.25
2023-04-20T00:49:30.071Z,3.72
2023-04-20T00:51:59.401Z,3.88
2023-04-20T00:54:26.536Z,3.25
2023-04-20T00:56:53.128Z,3.50
2023-04-20T00:59:19.991Z,4.03
2023-04-20T01:01:46.297Z,3.20
2023-04-20T01:04:12.681Z,3.30
2023-04-20T01:06:38.992Z,3.58
2023-04-20T01:09:05.751Z,3.47
2023-04-20T01:11:32.067Z,3.55
2023-04-20T01:13:58.306Z,3.60
2023-04-20T01:16:24.608Z,4.10
2023-04-20T01:18:51.143Z,4.03
2023-04-20T01:21:18.501Z,3.28
2023-04-20T01:23:45.964Z,4.22
2023-04-20T01:26:14.497Z,3.55
2023-04-20T01:28:41.050Z,3.63
2023-04-20T01:31:08.042Z,3.25
2023-04-20T01:33:34.840Z,3.70
2023-04-20T01:36:01.129Z,3.72
2023-04-20T01:38:27.429Z,3.42
2023-04-20T01:40:54.816Z,3.50
2023-04-20T01:43:21.795Z,3.53
2023-04-20T01:48:14.170Z,3.30
2023-04-20T01:50:40.523Z,3.85
2023-04-20T01:53:06.754Z,3.58
2023-04-20T01:55:33.215Z,3.80
2023-04-20T01:57:59.464Z,3.88
2023-04-20T02:00:25.842Z,3.40
2023-04-20T02:02:52.227Z,4.00
2023-04-20T02:05:18.570Z,4.25
2023-04-20T02:07:44.806Z,4.25
2023-04-20T02:10:11.090Z,4.45
2023-04-20T02:12:37.334Z,4.05
2023-04-20T02:15:05.052Z,4.10
2023-04-20T02:17:32.907Z,3.97
2023-04-20T02:19:59.604Z,3.50
2023-04-20T02:22:25.835Z,3.70
2023-04-20T02:24:52.078Z,3.53
2023-04-20T02:27:18.313Z,4.82
2023-04-20T02:29:44.527Z,3.80
2023-04-20T02:32:10.758Z,3.53
2023-04-20T02:34:36.963Z,3.70
2023-04-20T02:37:03.208Z,3.72
2023-04-20T02:39:29.498Z,4.07
2023-04-20T02:41:55.924Z,4.03
2023-04-20T02:44:22.356Z,3.97
2023-04-20T02:46:48.667Z,4.18
2023-04-20T02:49:15.204Z,4.05
2023-04-20T02:51:41.709Z,3.88
2023-04-20T02:54:07.934Z,4.47
2023-04-20T02:56:34.167Z,4.90
2023-04-20T02:59:00.508Z,4.35
2023-04-20T03:01:26.958Z,4.88
2023-04-20T03:03:53.551Z,4.25
2023-04-20T03:06:20.003Z,4.47
2023-04-20T03:08:46.514Z,4.97
2023-04-20T03:11:12.724Z,4.63
2023-04-20T03:13:38.949Z,5.05
2023-04-20T03:16:05.920Z,4.25
2023-04-20T03:18:32.223Z,4.85
2023-04-20T03:20:58.480Z,4.85
2023-04-20T03:23:24.718Z,4.80
2023-04-20T03:25:51.001Z,4.03
2023-04-20T03:28:17.355Z,4.30
2023-04-20T03:30:43.565Z,4.35
2023-04-20T03:33:09.931Z,4.57
2023-04-20T03:35:39.150Z,4.55
2023-04-20T03:38:06.276Z,4.30
2023-04-20T03:40:32.554Z,4.18
2023-04-20T03:42:58.805Z,4.65
2023-04-20T03:45:25.385Z,4.90
2023-04-20T03:47:51.919Z,4.45
2023-04-20T03:50:18.229Z,5.85
2023-04-20T03:52:44.469Z,6.25
2023-04-20T03:55:10.813Z,6.57
2023-04-20T03:57:37.707Z,6.20
2023-04-20T04:02:31.505Z,5.78
2023-04-20T04:07:24.137Z,5.28
2023-04-20T04:09:50.452Z,5.70
2023-04-20T04:12:17.867Z,4.88
2023-04-20T04:14:44.108Z,5.55
2023-04-20T04:17:10.619Z,4.88
2023-04-20T04:19:36.920Z,5.57
2023-04-20T04:22:03.317Z,5.35
2023-04-20T04:24:29.550Z,5.28
2023-04-20T04:26:56.656Z,4.65
2023-04-20T04:29:23.333Z,5.20
2023-04-20T04:31:49.631Z,6.13
2023-04-20T04:34:18.298Z,4.75
2023-04-20T04:36:44.541Z,5.07
2023-04-20T04:39:10.919Z,6.55
2023-04-20T04:41:37.414Z,4.97
2023-04-20T04:44:05.848Z,5.28
2023-04-20T04:46:32.383Z,4.90
2023-04-20T04:49:00.836Z,4.45
2023-04-20T04:51:27.166Z,5.10
2023-04-20T04:53:53.393Z,4.90
2023-04-20T04:56:20.515Z,7.28
2023-04-20T04:58:46.741Z,5.88
2023-04-20T05:01:13.324Z,5.60
2023-04-20T05:03:39.781Z,5.05
2023-04-20T05:06:06.190Z,4.88
2023-04-20T05:08:32.442Z,5.72
2023-04-20T05:10:58.681Z,5.50
2023-04-20T05:13:24.978Z,5.45
2023-04-20T05:15:51.265Z,5.25
2023-04-20T05:18:17.566Z,4.82
2023-04-20T05:20:43.783Z,5.15
2023-04-20T05:23:10.398Z,6.00
2023-04-20T05:25:36.775Z,6.65
2023-04-20T05:28:03.070Z,13.43
2023-04-20T05:30:29.359Z,7.93
2023-04-20T05:32:55.653Z,6.57
2023-04-20T05:35:22.334Z,9.60
2023-04-20T05:37:48.585Z,9.13
2023-04-20T05:40:15.727Z,7.88
2023-04-20T05:42:42.031Z,5.70
2023-04-20T05:45:08.566Z,4.85
2023-04-20T05:47:34.898Z,5.15
2023-04-20T05:50:01.207Z,5.13
2023-04-20T05:52:27.495Z,6.10
2023-04-20T05:54:53.827Z,5.57
2023-04-20T05:57:20.662Z,5.60
2023-04-20T05:59:46.904Z,4.68
2023-04-20T06:02:13.216Z,5.63
2023-04-20T06:04:39.688Z,5.78
2023-04-20T06:07:06.137Z,5.03
2023-04-20T06:09:32.411Z,5.35
2023-04-20T06:12:00.209Z,6.57
2023-04-20T06:14:26.488Z,5.55
2023-04-20T06:16:52.698Z,6.18
2023-04-20T06:19:19.050Z,4.97
2023-04-20T06:21:45.453Z,5.38
2023-04-20T06:24:11.680Z,5.30
2023-04-20T06:26:37.886Z,5.50
2023-04-20T06:29:04.227Z,5.90
2023-04-20T06:31:30.579Z,5.82
2023-04-20T06:33:56.868Z,5.38
2023-04-20T06:36:23.081Z,6.70
2023-04-20T06:38:49.326Z,5.57
2023-04-20T06:41:16.346Z,5.70
2023-04-20T06:46:08.783Z,5.82
2023-04-20T06:48:35.096Z,6.20
2023-04-20T06:51:01.818Z,5.68
2023-04-20T06:53:28.111Z,5.72
2023-04-20T06:55:55.619Z,5.53
2023-04-20T06:58:21.944Z,5.45
2023-04-20T07:00:48.176Z,5.68
2023-04-20T07:03:14.537Z,5.93
2023-04-20T07:05:40.964Z,5.78
2023-04-20T07:08:08.118Z,5.40
2023-04-20T07:10:34.433Z,6.85
2023-04-20T07:13:00.654Z,9.75
2023-04-20T07:15:26.922Z,5.78
2023-04-20T07:17:53.191Z,5.70
2023-04-20T07:20:19.434Z,6.53
2023-04-20T07:22:46.950Z,6.13
2023-04-20T07:25:13.275Z,6.45
2023-04-20T07:27:40.672Z,6.95
2023-04-20T07:30:08.660Z,5.97
2023-04-20T07:32:35.100Z,6.15
2023-04-20T07:35:01.505Z,6.13
2023-04-20T07:37:27.820Z,5.93
2023-04-20T07:39:54.154Z,6.13
2023-04-20T07:42:21.144Z,6.25
2023-04-20T07:47:13.843Z,6.35
2023-04-20T07:49:40.841Z,5.97
2023-04-20T07:54:42.927Z,4.85
2023-04-20T07:57:09.454Z,5.82
2023-04-20T07:59:36.372Z,5.82
2023-04-20T08:02:02.942Z,5.57
2023-04-20T08:04:29.622Z,5.90
2023-04-20T08:06:56.101Z,5.90
2023-04-20T08:09:22.409Z,5.97
2023-04-20T08:11:49.107Z,5.20
2023-04-20T08:14:15.840Z,5.13
2023-04-20T08:16:42.211Z,5.40
2023-04-20T08:19:11.397Z,5.07
2023-04-20T08:21:37.986Z,6.25
2023-04-20T08:24:04.603Z,5.63
2023-04-20T08:26:31.283Z,6.20
2023-04-20T08:28:57.881Z,5.93
2023-04-20T08:31:24.150Z,5.75
2023-04-20T08:33:50.541Z,5.75
2023-04-20T08:36:17.029Z,5.80
2023-04-20T08:38:43.283Z,5.97
2023-04-20T08:41:11.643Z,5.68
2023-04-20T08:43:37.904Z,5.82
2023-04-20T08:46:04.275Z,6.55
2023-04-20T08:48:37.407Z,5.30
2023-04-20T08:51:04.636Z,5.43
2023-04-20T08:53:33.749Z,5.85
2023-04-20T08:56:00.118Z,5.68
2023-04-20T08:58:29.603Z,6.07
2023-04-20T09:00:55.935Z,5.57
2023-04-20T09:03:32.704Z,5.57
2023-04-20T09:05:59.079Z,5.32
2023-04-20T09:08:38.703Z,5.05
2023-04-20T09:11:05.333Z,5.07
2023-04-20T09:13:31.603Z,5.18
2023-04-20T09:15:57.913Z,5.05
2023-04-20T09:18:24.801Z,5.30
2023-04-20T09:20:51.416Z,5.40
2023-04-20T09:23:18.475Z,4.78
2023-04-20T09:25:46.201Z,4.32
2023-04-20T09:28:13.392Z,4.85
2023-04-20T09:30:41.383Z,5.20
2023-04-20T09:33:08.475Z,4.75
2023-04-20T09:35:35.007Z,4.60
2023-04-20T09:38:01.246Z,5.18
2023-04-20T09:40:27.605Z,5.10
2023-04-20T09:42:54.602Z,5.18
2023-04-20T09:45:21.079Z,4.65
2023-04-20T09:47:47.930Z,4.18
2023-04-20T09:50:26.610Z,4.78
2023-04-20T09:52:59.988Z,4.85
2023-04-20T09:55:26.576Z,4.85
2023-04-20T09:57:54.096Z,4.88
2023-04-20T10:00:20.803Z,4.97
2023-04-20T10:02:48.216Z,5.75
2023-04-20T10:05:15.962Z,5.00
2023-04-20T10:07:42.178Z,5.70
2023-04-20T10:10:13.066Z,5.57
2023-04-20T10:12:52.860Z,5.15
2023-04-20T10:15:20.159Z,5.70
2023-04-20T10:17:46.559Z,5.32
2023-04-20T10:20:19.933Z,5.57
2023-04-20T10:22:46.454Z,5.05
2023-04-20T10:25:20.527Z,5.35
2023-04-20T10:27:53.547Z,5.22
2023-04-20T10:30:20.085Z,5.30
2023-04-20T10:32:46.492Z,5.00
2023-04-20T10:35:14.316Z,5.60
2023-04-20T10:37:50.726Z,6.30
2023-04-20T10:40:17.382Z,5.05
2023-04-20T10:42:44.400Z,5.50
2023-04-20T10:45:13.481Z,5.15
2023-04-20T10:47:44.303Z,7.25
2023-04-20T10:50:11.658Z,5.80
2023-04-20T10:52:38.861Z,5.13
2023-04-20T10:55:06.889Z,5.93
2023-04-20T10:57:33.844Z,6.80
2023-04-20T11:02:27.959Z,5.57
2023-04-20T11:05:00.777Z,6.43
2023-04-20T11:07:27.150Z,5.85
2023-04-20T11:09:53.897Z,6.68
2023-04-20T11:12:20.187Z,7.47
2023-04-20T11:14:57.892Z,6.82
2023-04-20T11:17:33.863Z,7.35
2023-04-20T11:20:14.363Z,6.35
2023-04-20T11:22:41.382Z,7.10
2023-04-20T11:27:34.442Z,8.75
2023-04-20T11:30:05.342Z,7.38
2023-04-20T11:32:33.265Z,7.40
2023-04-20T11:35:06.577Z,8.30
2023-04-20T11:37:34.417Z,7.88
2023-04-20T11:40:07.170Z,8.50
2023-04-20T11:42:33.462Z,6.82
2023-04-20T11:44:59.833Z,7.90
2023-04-20T11:47:26.165Z,5.82
2023-04-20T11:49:52.411Z,6.18
2023-04-20T11:52:18.688Z,6.43
2023-04-20T11:54:44.979Z,6.88
2023-04-20T11:57:11.391Z,5.78
2023-04-20T11:59:37.619Z,6.55
2023-04-20T12:02:04.492Z,6.82
2023-04-20T12:07:02.051Z,6.97
2023-04-20T12:09:28.518Z,6.97
2023-04-20T12:11:54.735Z,7.38
2023-04-20T12:14:21.029Z,6.85
2023-04-20T12:16:47.748Z,7.18
2023-04-20T12:19:14.000Z,6.28
2023-04-20T12:21:40.219Z,7.07
2023-04-20T12:24:06.507Z,7.20
2023-04-20T12:26:38.406Z,7.03
2023-04-20T12:29:05.204Z,8.15
2023-04-20T12:31:31.673Z,7.13
2023-04-20T12:33:57.993Z,7.55
2023-04-20T12:36:24.293Z,8.73
2023-04-20T12:38:52.118Z,7.72
2023-04-20T12:41:18.399Z,35.53
2023-04-20T12:43:44.607Z,10.25
2023-04-20T12:46:10.887Z,7.50
2023-04-20T12:48:37.127Z,9.45
2023-04-20T12:51:03.495Z,8.38
2023-04-20T12:53:29.855Z,8.05
2023-04-20T12:56:01.060Z,6.70
2023-04-20T12:58:27.844Z,6.80
2023-04-20T13:00:54.159Z,6.07
2023-04-20T13:03:20.592Z,7.63
2023-04-20T13:05:46.902Z,6.72
2023-04-20T13:08:13.170Z,6.90
2023-04-20T13:10:39.815Z,7.03
2023-04-20T13:13:06.067Z,6.47
2023-04-20T13:18:04.870Z,4.20
2023-04-20T13:22:59.307Z,4.20
2023-04-20T13:25:26.423Z,4.20
2023-04-20T13:27:53.732Z,5.15
2023-04-20T13:30:21.873Z,5.43
2023-04-20T13:32:49.887Z,5.68
2023-04-20T13:35:16.922Z,5.15
2023-04-20T13:37:43.370Z,4.72
2023-04-20T13:40:10.066Z,4.25
2023-04-20T13:42:36.466Z,3.20
2023-04-20T13:45:03.389Z,3.13
2023-04-20T13:49:56.570Z,3.97
2023-04-20T13:54:49.008Z,4.55
2023-04-20T13:57:15.360Z,4.25
2023-04-20T13:59:41.754Z,3.88
2023-04-20T14:02:08.568Z,4.95
2023-04-20T14:04:34.923Z,4.30
2023-04-20T14:07:01.161Z,5.35
2023-04-20T14:09:28.450Z,4.47
2023-04-20T14:11:56.574Z,5.70
2023-04-20T14:14:23.809Z,4.72
2023-04-20T14:16:50.090Z,4.30
2023-04-20T14:19:16.595Z,4.85
2023-04-20T14:21:44.446Z,5.53
2023-04-20T14:24:11.411Z,5.95
2023-04-20T14:29:04.761Z,6.25
2023-04-20T14:31:31.516Z,5.85
2023-04-20T14:33:57.840Z,6.45
2023-04-20T14:36:24.179Z,6.32
2023-04-20T14:38:50.482Z,7.82
2023-04-20T14:41:16.797Z,6.13
2023-04-20T14:43:43.036Z,8.50
2023-04-20T14:46:09.299Z,8.80
2023-04-20T14:48:38.351Z,49.50
2023-04-20T14:51:05.218Z,12.50
2023-04-20T14:53:32.645Z,13.70
2023-04-20T14:55:59.537Z,34.65
2023-04-20T14:58:25.851Z,13.23
2023-04-20T15:00:53.911Z,22.13
2023-04-20T15:03:20.328Z,15.15
2023-04-20T15:05:47.297Z,7.15
2023-04-20T15:08:13.702Z,15.25
2023-04-20T15:10:39.996Z,9.23
2023-04-20T15:13:06.426Z,7.57
2023-04-20T15:15:41.584Z,10.00
2023-04-20T15:18:14.265Z,7.82
2023-04-20T15:20:40.504Z,7.78
2023-04-20T15:23:06.748Z,7.43
2023-04-20T15:25:33.003Z,7.85
2023-04-20T15:27:59.248Z,7.28
2023-04-20T15:30:25.592Z,7.75
2023-04-20T15:32:51.832Z,7.53
2023-04-20T15:35:18.117Z,7.05
2023-04-20T15:37:45.349Z,8.27
2023-04-20T15:40:11.986Z,6.60
2023-04-20T15:42:38.238Z,7.10
2023-04-20T15:45:05.120Z,7.07
2023-04-20T15:47:31.428Z,6.13
2023-04-20T15:50:01.569Z,6.40
2023-04-20T15:52:28.766Z,6.82
2023-04-20T15:54:55.014Z,7.40
2023-04-20T15:57:21.223Z,8.45
2023-04-20T15:59:47.459Z,8.52
2023-04-20T16:02:13.789Z,10.18
2023-04-20T16:04:40.386Z,7.97
2023-04-20T16:07:06.690Z,8.65
2023-04-20T16:09:32.929Z,7.90
2023-04-20T16:11:59.884Z,9.75
2023-04-20T16:16:52.348Z,7.57
2023-04-20T16:19:18.612Z,7.70
2023-04-20T16:21:44.834Z,7.10
2023-04-20T16:24:11.098Z,6.93
2023-04-20T16:26:39.004Z,7.53
2023-04-20T16:29:06.370Z,7.22
2023-04-20T16:31:32.748Z,8.10
2023-04-20T16:33:59.076Z,7.90
2023-04-20T16:36:26.337Z,7.35
2023-04-20T16:38:52.571Z,6.80
2023-04-20T16:41:18.854Z,7.75
2023-04-20T16:43:45.175Z,7.95
2023-04-20T16:46:12.170Z,7.97
2023-04-20T16:48:38.500Z,9.27
2023-04-20T16:51:04.826Z,10.52
2023-04-20T16:53:31.128Z,11.27
2023-04-20T16:55:57.992Z,11.70
2023-04-20T16:58:24.220Z,10.98
2023-04-20T17:00:50.544Z,10.82
2023-04-20T17:03:17.108Z,14.02
2023-04-20T17:05:43.691Z,12.18
2023-04-20T17:08:09.967Z,10.18
2023-04-20T17:10:39.373Z,9.00
2023-04-20T17:13:05.640Z,10.43
2023-04-20T17:15:31.886Z,12.60
2023-04-20T17:17:59.061Z,12.73
2023-04-20T17:20:25.461Z,10.77
2023-04-20T17:22:51.714Z,12.75
2023-04-20T17:25:18.048Z,12.93
2023-04-20T17:27:44.267Z,14.05
2023-04-20T17:30:10.919Z,25.27
2023-04-20T17:32:37.218Z,21.88
2023-04-20T17:35:04.238Z,13.48
2023-04-20T17:37:30.557Z,14.25
2023-04-20T17:39:56.902Z,11.05
2023-04-20T17:42:23.222Z,10.05
2023-04-20T17:44:49.428Z,11.00
2023-04-20T17:47:15.760Z,10.52
2023-04-20T17:49:43.192Z,9.65
2023-04-20T17:52:12.368Z,11.88
2023-04-20T17:54:38.590Z,10.52
2023-04-20T17:57:06.412Z,9.63
2023-04-20T17:59:32.667Z,9.15
2023-04-20T18:01:59.056Z,9.02
2023-04-20T18:04:26.193Z,9.25
2023-04-20T18:06:52.712Z,9.00
2023-04-20T18:09:19.006Z,8.68
2023-04-20T18:11:45.246Z,9.65
2023-04-20T18:14:11.538Z,9.75
2023-04-20T18:16:37.811Z,12.77
2023-04-20T18:19:04.021Z,11.95
2023-04-20T18:21:30.424Z,10.65
2023-04-20T18:23:56.652Z,12.18
2023-04-20T18:26:23.786Z,11.90
2023-04-20T18:28:50.114Z,9.80
2023-04-20T18:31:16.514Z,8.88
2023-04-20T18:33:42.799Z,9.57
2023-04-20T18:36:09.029Z,10.20
2023-04-20T18:38:35.357Z,8.35
2023-04-20T18:41:01.817Z,8.57
2023-04-20T18:43:28.059Z,10.02
2023-04-20T18:45:54.336Z,9.75
2023-04-20T18:48:20.652Z,9.38
2023-04-20T18:50:48.009Z,9.48
2023-04-20T18:53:14.543Z,9.45
2023-04-20T18:55:40.823Z,8.77
2023-04-20T18:58:07.147Z,9.45
2023-04-20T19:00:33.457Z,9.32
2023-04-20T19:02:59.892Z,9.27
2023-04-20T19:05:26.255Z,9.20
2023-04-20T19:07:52.505Z,9.57
2023-04-20T19:10:18.784Z,9.75
2023-04-20T19:12:45.052Z,9.88
2023-04-20T19:15:11.430Z,8.88
2023-04-20T19:17:37.784Z,9.82
2023-04-20T19:20:04.270Z,10.18
2023-04-20T19:22:30.536Z,9.15
2023-04-20T19:24:56.761Z,9.45
2023-04-20T19:27:23.038Z,9.85
2023-04-20T19:29:49.270Z,11.25
2023-04-20T19:32:15.571Z,10.00
2023-04-20T19:34:42.010Z,11.52
2023-04-20T19:37:08.262Z,10.63
2023-04-20T19:39:34.909Z,11.88
2023-04-20T19:42:01.371Z,11.05
2023-04-20T19:44:28.069Z,11.48
2023-04-20T19:46:54.329Z,10.02
2023-04-20T19:49:20.744Z,11.25
2023-04-20T19:51:47.327Z,11.13
2023-04-20T19:54:16.584Z,12.40
2023-04-20T19:56:43.049Z,10.95
2023-04-20T19:59:09.520Z,11.40
2023-04-20T20:01:35.949Z,11.38
2023-04-20T20:04:02.289Z,14.05
2023-04-20T20:06:28.744Z,14.20
2023-04-20T20:08:55.001Z,12.73
2023-04-20T20:11:22.431Z,14.98
2023-04-20T20:13:48.716Z,14.57
2023-04-20T20:16:16.138Z,14.23
2023-04-20T20:18:43.095Z,13.68
2023-04-20T20:23:35.543Z,13.27
2023-04-20T20:26:02.572Z,14.10
2023-04-20T20:30:55.004Z,14.02
2023-04-20T20:33:21.281Z,12.80
2023-04-20T20:35:47.818Z,12.88
2023-04-20T20:38:14.176Z,13.13
2023-04-20T20:40:40.432Z,13.30
2023-04-20T20:43:06.800Z,13.18
2023-04-20T20:45:33.090Z,11.27
2023-04-20T20:47:59.845Z,12.52
2023-04-20T20:50:27.697Z,12.63
2023-04-20T20:52:54.041Z,12.98
2023-04-20T20:55:20.323Z,13.60
2023-04-20T20:57:46.634Z,12.27
2023-04-20T21:00:13.790Z,12.73
2023-04-20T21:02:40.356Z,12.25
2023-04-20T21:05:07.001Z,14.20
2023-04-20T21:07:33.401Z,13.43
2023-04-20T21:09:59.881Z,12.98
2023-04-20T21:12:26.153Z,12.82
2023-04-20T21:14:52.479Z,12.90
2023-04-20T21:17:19.463Z,14.02
2023-04-20T21:19:45.890Z,14.68
2023-04-20T21:22:12.177Z,13.32
2023-04-20T21:24:38.397Z,14.25
2023-04-20T21:27:04.676Z,13.40
2023-04-20T21:29:30.957Z,13.85
2023-04-20T21:31:57.543Z,13.85
2023-04-20T21:34:23.770Z,13.75
2023-04-20T21:36:50.185Z,13.07
2023-04-20T21:39:16.615Z,13.75
2023-04-20T21:41:43.616Z,13.10
2023-04-20T21:44:09.908Z,14.45
2023-04-20T21:46:36.246Z,15.02
2023-04-20T21:49:02.633Z,14.38
2023-04-20T21:51:28.851Z,13.48
2023-04-20T21:53:55.074Z,13.27
2023-04-20T21:56:21.328Z,15.27
2023-04-20T21:58:47.581Z,14.07
2023-04-20T22:01:13.798Z,14.45
2023-04-20T22:03:40.383Z,14.68
2023-04-20T22:06:07.069Z,14.77
2023-04-20T22:08:33.329Z,14.07
2023-04-20T22:10:59.563Z,15.65
2023-04-20T22:13:25.887Z,14.63
2023-04-20T22:15:52.723Z,13.57
2023-04-20T22:20:45.692Z,14.23
2023-04-20T22:23:11.965Z,15.48
2023-04-20T22:25:38.362Z,14.93
2023-04-20T22:28:04.667Z,15.73
2023-04-20T22:30:31.045Z,15.13
2023-04-20T22:32:57.332Z,15.25
2023-04-20T22:35:23.561Z,19.23
2023-04-20T22:37:49.958Z,22.15
2023-04-20T22:40:16.181Z,18.48
2023-04-20T22:42:42.503Z,16.35
2023-04-20T22:45:11.834Z,17.17
2023-04-20T22:47:38.519Z,17.65
2023-04-20T22:50:05.356Z,17.10
2023-04-20T22:52:32.280Z,17.92
2023-04-20T22:57:24.834Z,16.63
2023-04-20T22:59:51.365Z,17.23
2023-04-20T23:02:17.690Z,17.25
2023-04-20T23:04:44.250Z,16.60
2023-04-20T23:07:11.535Z,16.67
2023-04-20T23:09:39.907Z,16.30
2023-04-20T23:12:09.697Z,14.63
2023-04-20T23:14:37.412Z,15.18
2023-04-20T23:17:03.995Z,14.82
2023-04-20T23:19:32.945Z,17.05
2023-04-20T23:21:59.671Z,16.45
2023-04-20T23:24:25.892Z,17.88
2023-04-20T23:26:52.176Z,15.82
2023-04-20T23:29:18.678Z,16.60
2023-04-20T23:31:45.342Z,15.85
2023-04-20T23:34:11.692Z,15.55
2023-04-20T23:36:37.927Z,15.75
2023-04-20T23:39:05.667Z,16.02
2023-04-20T23:41:31.965Z,16.50
2023-04-20T23:43:58.252Z,17.15
2023-04-20T23:46:24.554Z,16.65
2023-04-20T23:48:51.563Z,14.98
2023-04-20T23:53:43.937Z,15.38
2023-04-20T23:56:10.285Z,14.00
2023-04-20T23:58:37.568Z,15.23
